createdAt,value
2018-02-24T00:02:25.975Z,89.30
2018-02-24T00:04:52.856Z,89.30
2018-02-24T00:07:20.488Z,89.40
2018-02-24T00:09:47.438Z,89.40
2018-02-24T00:12:14.875Z,89.20
2018-02-24T00:14:41.835Z,90.00
2018-02-24T00:17:08.707Z,88.30
2018-02-24T00:19:35.846Z,88.70
2018-02-24T00:22:03.419Z,87.90
2018-02-24T00:24:33.576Z,89.00
2018-02-24T00:27:01.408Z,88.50
2018-02-24T00:29:28.284Z,88.40
2018-02-24T00:31:55.210Z,89.00
2018-02-24T00:34:23.115Z,87.30
2018-02-24T00:36:50.039Z,87.30
2018-02-24T00:39:16.925Z,86.70
2018-02-24T00:41:43.846Z,87.80
2018-02-24T00:44:10.715Z,87.00
2018-02-24T00:46:37.711Z,87.10
2018-02-24T00:49:05.449Z,88.60
2018-02-24T00:51:32.404Z,88.60
2018-02-24T00:53:59.380Z,88.40
2018-02-24T00:56:26.332Z,88.80
2018-02-24T00:58:53.315Z,89.30
2018-02-24T01:01:20.331Z,90.20
2018-02-24T01:03:47.745Z,90.10
2018-02-24T01:06:15.439Z,89.90
2018-02-24T01:08:42.363Z,89.90
2018-02-24T01:11:10.076Z,89.80
2018-02-24T01:13:37.005Z,89.50
2018-02-24T01:16:03.908Z,90.20
2018-02-24T01:18:31.567Z,90.00
2018-02-24T01:20:58.513Z,89.30
2018-02-24T01:23:25.442Z,89.50
2018-02-24T01:25:52.375Z,90.00
2018-02-24T01:28:19.250Z,90.00
2018-02-24T01:30:46.174Z,90.50
2018-02-24T01:33:13.098Z,90.30
2018-02-24T01:35:40.087Z,90.40
2018-02-24T01:38:07.073Z,90.60
2018-02-24T01:40:33.999Z,90.60
2018-02-24T01:43:01.696Z,90.50
2018-02-24T01:45:28.571Z,90.20
2018-02-24T01:47:55.512Z,90.40
2018-02-24T01:50:22.560Z,90.50
2018-02-24T01:52:49.483Z,90.80
2018-02-24T01:55:16.359Z,90.80
2018-02-24T01:57:43.287Z,90.70
2018-02-24T02:00:10.174Z,90.80
2018-02-24T02:02:37.871Z,91.40
2018-02-24T02:05:04.760Z,91.00
2018-02-24T02:07:31.678Z,90.80
2018-02-24T02:09:58.553Z,91.00
2018-02-24T02:12:25.484Z,91.10
2018-02-24T02:14:52.348Z,90.90
2018-02-24T02:17:19.300Z,90.80
2018-02-24T02:19:46.176Z,90.90
2018-02-24T02:22:13.122Z,90.90
2018-02-24T02:24:40.805Z,91.60
2018-02-24T02:27:07.684Z,91.50
2018-02-24T02:29:34.647Z,91.40
2018-02-24T02:32:01.531Z,91.50
2018-02-24T02:34:28.464Z,91.40
2018-02-24T02:36:56.069Z,91.80
2018-02-24T02:39:23.005Z,91.80
2018-02-24T02:41:49.884Z,92.10
2018-02-24T02:44:16.806Z,92.10
2018-02-24T02:46:43.749Z,92.00
2018-02-24T02:49:10.675Z,92.00
2018-02-24T02:51:37.547Z,92.10
2018-02-24T02:54:04.474Z,92.00
2018-02-24T02:56:31.458Z,92.10
2018-02-24T02:58:58.328Z,92.10
2018-02-24T03:01:25.276Z,92.30
2018-02-24T03:03:52.883Z,92.20
2018-02-24T03:06:19.869Z,92.20
2018-02-24T03:08:46.872Z,92.40
2018-02-24T03:11:13.807Z,92.40
2018-02-24T03:13:40.696Z,92.60
2018-02-24T03:16:07.703Z,92.50
2018-02-24T03:18:34.619Z,92.50
2018-02-24T03:21:02.355Z,92.00
2018-02-24T03:23:29.277Z,92.00
2018-02-24T03:25:56.145Z,91.90
2018-02-24T03:28:23.077Z,92.20
2018-02-24T03:30:50.003Z,92.10
2018-02-24T03:33:16.871Z,92.00
2018-02-24T03:35:43.803Z,92.10
2018-02-24T03:38:10.667Z,91.90
2018-02-24T03:40:37.620Z,92.00
2018-02-24T03:43:04.615Z,91.90
2018-02-24T03:45:31.564Z,92.00
2018-02-24T03:47:58.546Z,91.80
2018-02-24T03:50:25.479Z,92.10
2018-02-24T03:52:52.466Z,92.10
2018-02-24T03:55:19.461Z,92.30
2018-02-24T03:57:46.489Z,92.70
2018-02-24T04:00:13.396Z,92.20
2018-02-24T04:02:40.329Z,92.30
2018-02-24T04:05:07.298Z,92.50
2018-02-24T04:07:34.305Z,92.50
2018-02-24T04:10:01.168Z,92.50
2018-02-24T04:12:28.052Z,92.30
2018-02-24T04:14:55.706Z,92.10
2018-02-24T04:17:22.575Z,92.10
2018-02-24T04:19:49.521Z,92.30
2018-02-24T04:22:17.123Z,92.50
2018-02-24T04:24:44.029Z,92.30
2018-02-24T04:27:11.008Z,92.20
2018-02-24T04:29:37.876Z,92.30
2018-02-24T04:32:04.809Z,92.20
2018-02-24T04:34:31.679Z,92.10
2018-02-24T04:36:58.626Z,92.00
2018-02-24T04:39:25.494Z,92.00
2018-02-24T04:41:52.496Z,91.50
2018-02-24T04:44:19.376Z,91.60
2018-02-24T04:46:46.290Z,91.50
2018-02-24T04:49:13.218Z,91.90
2018-02-24T04:51:40.105Z,92.20
2018-02-24T04:54:07.043Z,92.30
2018-02-24T04:56:33.969Z,92.70
2018-02-24T04:59:00.840Z,92.50
2018-02-24T05:01:27.796Z,92.60
2018-02-24T05:03:54.667Z,92.60
2018-02-24T05:06:21.532Z,92.70
2018-02-24T05:08:48.512Z,93.10
2018-02-24T05:11:15.448Z,93.10
2018-02-24T05:13:42.323Z,93.40
2018-02-24T05:16:09.310Z,93.30
2018-02-24T05:18:36.249Z,93.40
2018-02-24T05:21:03.140Z,93.50
2018-02-24T05:23:30.143Z,93.40
2018-02-24T05:25:58.601Z,93.80
2018-02-24T05:28:40.440Z,93.30
2018-02-24T05:31:08.293Z,93.30
2018-02-24T05:33:35.167Z,93.20
2018-02-24T05:36:02.124Z,93.50
2018-02-24T05:38:29.042Z,93.20
2018-02-24T05:40:55.983Z,93.30
2018-02-24T05:43:22.912Z,93.30
2018-02-24T05:45:49.850Z,93.50
2018-02-24T05:48:16.785Z,93.50
2018-02-24T05:50:44.467Z,93.70
2018-02-24T05:53:11.340Z,93.70
2018-02-24T05:55:38.273Z,93.90
2018-02-24T05:58:05.209Z,93.70
2018-02-24T06:00:32.213Z,93.30
2018-02-24T06:02:59.840Z,93.50
2018-02-24T06:05:26.778Z,93.50
2018-02-24T06:07:53.750Z,93.30
2018-02-24T06:10:20.630Z,93.20
2018-02-24T06:12:48.305Z,93.20
2018-02-24T06:15:15.228Z,93.20
2018-02-24T06:17:42.919Z,93.30
2018-02-24T06:20:09.836Z,93.20
2018-02-24T06:22:36.762Z,93.20
2018-02-24T06:25:03.736Z,93.30
2018-02-24T06:27:31.490Z,93.00
2018-02-24T06:29:58.373Z,93.00
2018-02-24T06:32:25.381Z,93.00
2018-02-24T06:34:52.306Z,93.00
2018-02-24T06:37:19.264Z,93.20
2018-02-24T06:39:46.198Z,92.90
2018-02-24T06:42:13.091Z,92.90
2018-02-24T06:44:40.015Z,92.60
2018-02-24T06:47:06.867Z,92.50
2018-02-24T06:49:34.547Z,92.30
2018-02-24T06:52:01.405Z,92.20
2018-02-24T06:54:28.273Z,92.40
2018-02-24T06:56:55.272Z,92.10
2018-02-24T06:59:22.884Z,91.80
2018-02-24T07:01:50.602Z,91.80
2018-02-24T07:04:18.856Z,91.90
2018-02-24T07:06:46.772Z,91.90
2018-02-24T07:09:14.406Z,91.80
2018-02-24T07:14:27.703Z,91.40
2018-02-24T07:16:54.960Z,91.30
2018-02-24T07:19:23.948Z,90.90
2018-02-24T07:22:02.275Z,90.70
2018-02-24T07:24:33.382Z,90.30
2018-02-24T07:27:00.492Z,90.20
2018-02-24T07:29:32.765Z,88.20
2018-02-24T07:32:02.506Z,86.20
2018-02-24T07:34:34.029Z,82.60
2018-02-24T07:37:09.466Z,79.80
2018-02-24T07:39:43.319Z,79.80
2018-02-24T07:42:10.993Z,78.20
2018-02-24T07:44:46.298Z,73.90
2018-02-24T07:47:13.880Z,71.70
2018-02-24T07:49:41.022Z,65.10
2018-02-24T07:52:14.459Z,61.20
2018-02-24T07:54:41.959Z,56.70
2018-02-24T07:57:09.653Z,45.70
2018-02-24T07:59:37.716Z,45.50
2018-02-24T08:02:05.420Z,42.20
2018-02-24T08:04:33.495Z,36.50
2018-02-24T08:07:04.115Z,36.30
2018-02-24T08:09:35.315Z,34.70
2018-02-24T08:12:15.837Z,33.90
2018-02-24T08:14:56.747Z,31.40
2018-02-24T08:17:36.312Z,30.20
2018-02-24T08:20:18.146Z,27.20
2018-02-24T08:22:58.382Z,27.70
2018-02-24T08:25:26.805Z,27.70
2018-02-24T08:27:55.183Z,26.40
2018-02-24T08:30:22.731Z,25.90
2018-02-24T08:32:53.299Z,24.90
2018-02-24T08:35:20.305Z,24.90
2018-02-24T08:37:47.236Z,24.10
2018-02-24T08:40:14.197Z,23.20
2018-02-24T08:42:42.607Z,24.50
2018-02-24T08:45:09.467Z,24.10
2018-02-24T08:47:36.404Z,23.10
2018-02-24T08:50:11.540Z,23.20
2018-02-24T08:52:39.804Z,23.40
2018-02-24T08:55:06.978Z,22.80
2018-02-24T08:57:40.707Z,22.80
2018-02-24T09:00:08.968Z,22.40
2018-02-24T09:02:36.577Z,23.50
2018-02-24T09:05:03.479Z,23.50
2018-02-24T09:07:30.432Z,22.60
